sensor_id;sensor_type;location;lat;lon;timestamp;P1;durP1;ratioP1;P2;durP2;ratioP2
32172;SDS011;18679;45.190;5.722;2023-07-28T00:02:57;3.25;;;0.90;;
32172;SDS011;18679;45.190;5.722;2023-07-28T00:05:58;3.13;;;1.13;;
32172;SDS011;18679;45.190;5.722;2023-07-28T00:08:59;1.40;;;1.05;;
32172;SDS011;18679;45.190;5.722;2023-07-28T00:12:00;2.00;;;0.88;;
32172;SDS011;18679;45.190;5.722;2023-07-28T00:15:01;7.13;;;1.15;;
32172;SDS011;18679;45.190;5.722;2023-07-28T00:18:02;2.25;;;1.00;;
32172;SDS011;18679;45.190;5.722;2023-07-28T00:21:04;2.55;;;1.00;;
32172;SDS011;18679;45.190;5.722;2023-07-28T00:24:05;1.73;;;1.33;;
32172;SDS011;18679;45.190;5.722;2023-07-28T00:27:06;3.72;;;1.25;;
32172;SDS011;18679;45.190;5.722;2023-07-28T00:30:07;2.30;;;0.98;;
32172;SDS011;18679;45.190;5.722;2023-07-28T00:33:09;2.45;;;1.20;;
32172;SDS011;18679;45.190;5.722;2023-07-28T00:36:11;3.17;;;1.30;;
32172;SDS011;18679;45.190;5.722;2023-07-28T00:39:15;3.42;;;0.93;;
32172;SDS011;18679;45.190;5.722;2023-07-28T00:42:16;2.08;;;1.20;;
32172;SDS011;18679;45.190;5.722;2023-07-28T00:45:16;4.78;;;1.15;;
32172;SDS011;18679;45.190;5.722;2023-07-28T00:48:17;2.60;;;1.20;;
32172;SDS011;18679;45.190;5.722;2023-07-28T00:51:20;7.25;;;1.67;;
32172;SDS011;18679;45.190;5.722;2023-07-28T00:54:21;1.50;;;1.17;;
32172;SDS011;18679;45.190;5.722;2023-07-28T00:57:22;1.73;;;1.15;;
32172;SDS011;18679;45.190;5.722;2023-07-28T01:00:23;1.80;;;1.10;;
32172;SDS011;18679;45.190;5.722;2023-07-28T01:03:24;4.22;;;1.08;;
32172;SDS011;18679;45.190;5.722;2023-07-28T01:10:06;4.50;;;1.10;;
32172;SDS011;18679;45.190;5.722;2023-07-28T01:13:12;2.00;;;1.33;;
32172;SDS011;18679;45.190;5.722;2023-07-28T01:16:13;1.73;;;1.10;;
32172;SDS011;18679;45.190;5.722;2023-07-28T01:19:16;2.15;;;1.00;;
32172;SDS011;18679;45.190;5.722;2023-07-28T01:26:09;1.02;;;0.63;;
32172;SDS011;18679;45.190;5.722;2023-07-28T01:29:11;2.70;;;1.20;;
32172;SDS011;18679;45.190;5.722;2023-07-28T01:32:15;6.10;;;1.40;;
32172;SDS011;18679;45.190;5.722;2023-07-28T01:35:15;1.50;;;0.98;;
32172;SDS011;18679;45.190;5.722;2023-07-28T01:38:16;5.90;;;1.23;;
32172;SDS011;18679;45.190;5.722;2023-07-28T01:41:17;2.67;;;1.10;;
32172;SDS011;18679;45.190;5.722;2023-07-28T01:44:18;3.25;;;1.17;;
32172;SDS011;18679;45.190;5.722;2023-07-28T01:47:18;1.30;;;0.90;;
32172;SDS011;18679;45.190;5.722;2023-07-28T01:50:19;2.50;;;1.00;;
32172;SDS011;18679;45.190;5.722;2023-07-28T01:53:20;2.83;;;0.98;;
32172;SDS011;18679;45.190;5.722;2023-07-28T01:56:21;1.27;;;1.10;;
32172;SDS011;18679;45.190;5.722;2023-07-28T01:59:22;1.73;;;1.00;;
32172;SDS011;18679;45.190;5.722;2023-07-28T02:02:23;4.50;;;1.17;;
32172;SDS011;18679;45.190;5.722;2023-07-28T02:05:24;8.73;;;1.20;;
32172;SDS011;18679;45.190;5.722;2023-07-28T02:08:25;3.72;;;1.02;;
32172;SDS011;18679;45.190;5.722;2023-07-28T02:11:25;2.53;;;1.20;;
32172;SDS011;18679;45.190;5.722;2023-07-28T02:14:26;2.10;;;1.00;;
32172;SDS011;18679;45.190;5.722;2023-07-28T02:17:27;3.22;;;1.35;;
32172;SDS011;18679;45.190;5.722;2023-07-28T02:20:28;2.80;;;1.25;;
32172;SDS011;18679;45.190;5.722;2023-07-28T02:23:29;0.98;;;0.90;;
32172;SDS011;18679;45.190;5.722;2023-07-28T02:26:30;2.58;;;1.13;;
32172;SDS011;18679;45.190;5.722;2023-07-28T02:29:31;1.95;;;1.40;;
32172;SDS011;18679;45.190;5.722;2023-07-28T02:32:32;1.20;;;0.88;;
32172;SDS011;18679;45.190;5.722;2023-07-28T02:35:33;2.03;;;1.00;;
32172;SDS011;18679;45.190;5.722;2023-07-28T02:38:33;1.00;;;0.73;;
32172;SDS011;18679;45.190;5.722;2023-07-28T02:41:34;4.95;;;1.38;;
32172;SDS011;18679;45.190;5.722;2023-07-28T02:44:35;4.10;;;1.15;;
32172;SDS011;18679;45.190;5.722;2023-07-28T02:47:36;2.60;;;1.17;;
32172;SDS011;18679;45.190;5.722;2023-07-28T02:50:38;3.30;;;1.08;;
32172;SDS011;18679;45.190;5.722;2023-07-28T02:53:39;2.65;;;1.20;;
32172;SDS011;18679;45.190;5.722;2023-07-28T02:56:40;2.00;;;0.93;;
32172;SDS011;18679;45.190;5.722;2023-07-28T02:59:45;1.17;;;0.88;;
32172;SDS011;18679;45.190;5.722;2023-07-28T03:02:45;6.40;;;1.70;;
32172;SDS011;18679;45.190;5.722;2023-07-28T03:05:46;2.53;;;1.38;;
32172;SDS011;18679;45.190;5.722;2023-07-28T03:08:57;6.68;;;1.63;;
32172;SDS011;18679;45.190;5.722;2023-07-28T03:12:16;5.00;;;1.35;;
32172;SDS011;18679;45.190;5.722;2023-07-28T03:15:17;1.85;;;1.10;;
32172;SDS011;18679;45.190;5.722;2023-07-28T03:18:17;7.43;;;1.75;;
32172;SDS011;18679;45.190;5.722;2023-07-28T03:21:18;2.65;;;1.23;;
32172;SDS011;18679;45.190;5.722;2023-07-28T03:24:19;5.05;;;1.30;;
32172;SDS011;18679;45.190;5.722;2023-07-28T03:27:20;2.75;;;1.30;;
32172;SDS011;18679;45.190;5.722;2023-07-28T03:30:21;7.28;;;1.20;;
32172;SDS011;18679;45.190;5.722;2023-07-28T03:33:22;2.80;;;1.08;;
32172;SDS011;18679;45.190;5.722;2023-07-28T03:36:23;5.63;;;1.35;;
32172;SDS011;18679;45.190;5.722;2023-07-28T03:39:24;2.38;;;1.27;;
32172;SDS011;18679;45.190;5.722;2023-07-28T03:42:25;2.58;;;1.30;;
32172;SDS011;18679;45.190;5.722;2023-07-28T03:45:26;3.00;;;1.02;;
32172;SDS011;18679;45.190;5.722;2023-07-28T03:48:27;1.90;;;1.38;;
32172;SDS011;18679;45.190;5.722;2023-07-28T03:51:28;10.98;;;1.35;;
32172;SDS011;18679;45.190;5.722;2023-07-28T03:54:29;1.48;;;1.00;;
32172;SDS011;18679;45.190;5.722;2023-07-28T03:57:30;3.83;;;1.50;;
32172;SDS011;18679;45.190;5.722;2023-07-28T04:00:30;6.82;;;1.60;;
32172;SDS011;18679;45.190;5.722;2023-07-28T04:03:31;2.03;;;1.02;;
32172;SDS011;18679;45.190;5.722;2023-07-28T04:07:05;3.28;;;1.42;;
32172;SDS011;18679;45.190;5.722;2023-07-28T04:09:59;4.25;;;1.55;;
32172;SDS011;18679;45.190;5.722;2023-07-28T04:13:00;1.55;;;1.10;;
32172;SDS011;18679;45.190;5.722;2023-07-28T04:16:01;5.93;;;1.50;;
32172;SDS011;18679;45.190;5.722;2023-07-28T04:19:03;4.60;;;1.38;;
32172;SDS011;18679;45.190;5.722;2023-07-28T04:22:04;3.25;;;1.50;;
32172;SDS011;18679;45.190;5.722;2023-07-28T04:25:07;2.97;;;1.70;;
32172;SDS011;18679;45.190;5.722;2023-07-28T04:28:09;2.15;;;1.13;;
32172;SDS011;18679;45.190;5.722;2023-07-28T04:31:10;3.85;;;1.13;;
32172;SDS011;18679;45.190;5.722;2023-07-28T04:34:35;2.28;;;1.42;;
32172;SDS011;18679;45.190;5.722;2023-07-28T04:37:47;3.47;;;1.55;;
32172;SDS011;18679;45.190;5.722;2023-07-28T04:40:58;3.13;;;1.33;;
32172;SDS011;18679;45.190;5.722;2023-07-28T04:44:16;5.45;;;1.42;;
32172;SDS011;18679;45.190;5.722;2023-07-28T04:47:18;2.75;;;1.65;;
32172;SDS011;18679;45.190;5.722;2023-07-28T04:50:19;1.13;;;0.90;;
32172;SDS011;18679;45.190;5.722;2023-07-28T04:53:38;5.90;;;1.60;;
32172;SDS011;18679;45.190;5.722;2023-07-28T04:56:52;2.13;;;1.38;;
32172;SDS011;18679;45.190;5.722;2023-07-28T04:59:57;2.88;;;1.17;;
32172;SDS011;18679;45.190;5.722;2023-07-28T05:02:58;1.90;;;1.20;;
32172;SDS011;18679;45.190;5.722;2023-07-28T05:06:03;4.20;;;2.00;;
32172;SDS011;18679;45.190;5.722;2023-07-28T05:09:05;2.55;;;1.20;;
32172;SDS011;18679;45.190;5.722;2023-07-28T05:12:08;8.35;;;1.85;;
32172;SDS011;18679;45.190;5.722;2023-07-28T05:15:17;4.10;;;1.85;;
32172;SDS011;18679;45.190;5.722;2023-07-28T05:18:18;4.65;;;1.48;;
32172;SDS011;18679;45.190;5.722;2023-07-28T05:21:44;3.20;;;1.50;;
32172;SDS011;18679;45.190;5.722;2023-07-28T05:24:47;1.52;;;0.98;;
32172;SDS011;18679;45.190;5.722;2023-07-28T05:27:49;2.80;;;1.23;;
32172;SDS011;18679;45.190;5.722;2023-07-28T05:30:50;4.03;;;1.70;;
32172;SDS011;18679;45.190;5.722;2023-07-28T05:33:51;2.78;;;1.27;;
32172;SDS011;18679;45.190;5.722;2023-07-28T05:36:55;2.95;;;1.90;;
32172;SDS011;18679;45.190;5.722;2023-07-28T05:39:59;2.80;;;1.42;;
32172;SDS011;18679;45.190;5.722;2023-07-28T05:43:00;5.93;;;1.77;;
32172;SDS011;18679;45.190;5.722;2023-07-28T05:46:01;4.30;;;1.50;;
32172;SDS011;18679;45.190;5.722;2023-07-28T05:49:05;7.10;;;1.98;;
32172;SDS011;18679;45.190;5.722;2023-07-28T05:52:06;7.63;;;1.98;;
32172;SDS011;18679;45.190;5.722;2023-07-28T05:55:07;7.65;;;1.60;;
32172;SDS011;18679;45.190;5.722;2023-07-28T05:58:09;3.10;;;1.55;;
32172;SDS011;18679;45.190;5.722;2023-07-28T06:01:12;7.20;;;1.83;;
32172;SDS011;18679;45.190;5.722;2023-07-28T06:04:40;4.25;;;1.92;;
32172;SDS011;18679;45.190;5.722;2023-07-28T06:07:41;2.88;;;1.80;;
32172;SDS011;18679;45.190;5.722;2023-07-28T06:10:42;3.83;;;1.75;;
32172;SDS011;18679;45.190;5.722;2023-07-28T06:13:43;4.20;;;1.73;;
32172;SDS011;18679;45.190;5.722;2023-07-28T06:16:45;6.35;;;2.15;;
32172;SDS011;18679;45.190;5.722;2023-07-28T06:19:46;3.67;;;1.63;;
32172;SDS011;18679;45.190;5.722;2023-07-28T06:22:47;4.30;;;1.83;;
32172;SDS011;18679;45.190;5.722;2023-07-28T06:25:48;4.03;;;1.80;;
32172;SDS011;18679;45.190;5.722;2023-07-28T06:28:49;6.32;;;2.10;;
32172;SDS011;18679;45.190;5.722;2023-07-28T06:31:50;4.90;;;1.80;;
32172;SDS011;18679;45.190;5.722;2023-07-28T06:34:51;2.78;;;1.88;;
32172;SDS011;18679;45.190;5.722;2023-07-28T06:37:54;4.40;;;1.90;;
32172;SDS011;18679;45.190;5.722;2023-07-28T06:40:55;3.42;;;1.80;;
32172;SDS011;18679;45.190;5.722;2023-07-28T06:43:56;5.05;;;1.80;;
32172;SDS011;18679;45.190;5.722;2023-07-28T06:46:57;5.07;;;2.22;;
32172;SDS011;18679;45.190;5.722;2023-07-28T06:49:58;8.35;;;1.90;;
32172;SDS011;18679;45.190;5.722;2023-07-28T06:52:59;5.88;;;2.33;;
32172;SDS011;18679;45.190;5.722;2023-07-28T06:56:00;3.75;;;2.00;;
32172;SDS011;18679;45.190;5.722;2023-07-28T06:59:02;2.92;;;1.50;;
32172;SDS011;18679;45.190;5.722;2023-07-28T07:02:03;6.18;;;1.52;;
32172;SDS011;18679;45.190;5.722;2023-07-28T07:05:04;2.95;;;1.88;;
32172;SDS011;18679;45.190;5.722;2023-07-28T07:08:05;4.38;;;1.85;;
32172;SDS011;18679;45.190;5.722;2023-07-28T07:11:06;2.55;;;1.45;;
32172;SDS011;18679;45.190;5.722;2023-07-28T07:14:07;4.65;;;2.00;;
32172;SDS011;18679;45.190;5.722;2023-07-28T07:17:09;5.70;;;1.80;;
32172;SDS011;18679;45.190;5.722;2023-07-28T07:20:09;3.38;;;1.75;;
32172;SDS011;18679;45.190;5.722;2023-07-28T07:23:11;5.10;;;2.17;;
32172;SDS011;18679;45.190;5.722;2023-07-28T07:26:13;3.83;;;1.95;;
32172;SDS011;18679;45.190;5.722;2023-07-28T07:29:14;3.33;;;1.42;;
32172;SDS011;18679;45.190;5.722;2023-07-28T07:32:15;4.32;;;1.88;;
32172;SDS011;18679;45.190;5.722;2023-07-28T07:35:17;5.10;;;1.92;;
32172;SDS011;18679;45.190;5.722;2023-07-28T07:38:18;4.20;;;2.13;;
32172;SDS011;18679;45.190;5.722;2023-07-28T07:41:20;4.45;;;1.48;;
32172;SDS011;18679;45.190;5.722;2023-07-28T07:44:22;3.22;;;1.92;;
32172;SDS011;18679;45.190;5.722;2023-07-28T07:47:23;7.10;;;1.80;;
32172;SDS011;18679;45.190;5.722;2023-07-28T07:50:24;3.95;;;1.70;;
32172;SDS011;18679;45.190;5.722;2023-07-28T07:53:25;6.10;;;2.22;;
32172;SDS011;18679;45.190;5.722;2023-07-28T07:56:26;2.08;;;1.58;;
32172;SDS011;18679;45.190;5.722;2023-07-28T07:59:27;2.90;;;1.83;;
32172;SDS011;18679;45.190;5.722;2023-07-28T08:02:30;2.72;;;1.80;;
32172;SDS011;18679;45.190;5.722;2023-07-28T08:05:31;4.45;;;1.42;;
32172;SDS011;18679;45.190;5.722;2023-07-28T08:08:32;4.55;;;1.73;;
32172;SDS011;18679;45.190;5.722;2023-07-28T08:11:33;3.88;;;1.90;;
32172;SDS011;18679;45.190;5.722;2023-07-28T08:14:34;5.28;;;1.67;;
32172;SDS011;18679;45.190;5.722;2023-07-28T08:17:35;4.63;;;1.95;;
32172;SDS011;18679;45.190;5.722;2023-07-28T08:20:35;7.25;;;1.92;;
32172;SDS011;18679;45.190;5.722;2023-07-28T08:23:36;2.92;;;1.73;;
32172;SDS011;18679;45.190;5.722;2023-07-28T08:26:37;3.92;;;1.80;;
32172;SDS011;18679;45.190;5.722;2023-07-28T08:29:38;4.80;;;1.90;;
32172;SDS011;18679;45.190;5.722;2023-07-28T08:32:39;2.97;;;1.70;;
32172;SDS011;18679;45.190;5.722;2023-07-28T08:35:40;4.45;;;1.98;;
32172;SDS011;18679;45.190;5.722;2023-07-28T08:38:40;3.97;;;1.67;;
32172;SDS011;18679;45.190;5.722;2023-07-28T08:41:42;3.00;;;1.63;;
32172;SDS011;18679;45.190;5.722;2023-07-28T08:44:42;2.88;;;1.50;;
32172;SDS011;18679;45.190;5.722;2023-07-28T08:47:46;4.82;;;1.65;;
32172;SDS011;18679;45.190;5.722;2023-07-28T08:50:46;2.00;;;1.40;;
32172;SDS011;18679;45.190;5.722;2023-07-28T08:53:48;4.43;;;1.73;;
32172;SDS011;18679;45.190;5.722;2023-07-28T08:56:48;6.50;;;1.90;;
32172;SDS011;18679;45.190;5.722;2023-07-28T08:59:50;2.83;;;1.83;;
32172;SDS011;18679;45.190;5.722;2023-07-28T09:02:51;3.53;;;1.80;;
32172;SDS011;18679;45.190;5.722;2023-07-28T09:05:52;4.00;;;1.40;;
32172;SDS011;18679;45.190;5.722;2023-07-28T09:08:56;3.42;;;1.75;;
32172;SDS011;18679;45.190;5.722;2023-07-28T09:11:58;4.38;;;1.58;;
32172;SDS011;18679;45.190;5.722;2023-07-28T09:15:00;3.20;;;1.77;;
32172;SDS011;18679;45.190;5.722;2023-07-28T09:18:01;2.50;;;1.42;;
32172;SDS011;18679;45.190;5.722;2023-07-28T09:21:01;4.30;;;1.58;;
32172;SDS011;18679;45.190;5.722;2023-07-28T09:24:04;3.47;;;1.88;;
32172;SDS011;18679;45.190;5.722;2023-07-28T09:27:09;6.38;;;1.55;;
32172;SDS011;18679;45.190;5.722;2023-07-28T09:30:23;2.85;;;1.75;;
32172;SDS011;18679;45.190;5.722;2023-07-28T09:33:28;2.90;;;1.92;;
32172;SDS011;18679;45.190;5.722;2023-07-28T09:36:30;2.63;;;1.30;;
32172;SDS011;18679;45.190;5.722;2023-07-28T09:39:31;3.58;;;1.75;;
32172;SDS011;18679;45.190;5.722;2023-07-28T09:42:36;2.40;;;1.27;;
32172;SDS011;18679;45.190;5.722;2023-07-28T09:45:38;3.67;;;1.70;;
32172;SDS011;18679;45.190;5.722;2023-07-28T09:48:39;3.60;;;1.70;;
32172;SDS011;18679;45.190;5.722;2023-07-28T09:51:46;3.33;;;1.90;;
32172;SDS011;18679;45.190;5.722;2023-07-28T09:54:50;2.25;;;1.65;;
32172;SDS011;18679;45.190;5.722;2023-07-28T09:57:54;2.92;;;1.70;;
32172;SDS011;18679;45.190;5.722;2023-07-28T10:00:57;3.10;;;1.50;;
32172;SDS011;18679;45.190;5.722;2023-07-28T10:03:59;2.85;;;1.65;;
32172;SDS011;18679;45.190;5.722;2023-07-28T10:07:09;6.78;;;1.80;;
32172;SDS011;18679;45.190;5.722;2023-07-28T10:10:11;3.28;;;1.95;;
32172;SDS011;18679;45.190;5.722;2023-07-28T10:13:20;3.63;;;1.88;;
32172;SDS011;18679;45.190;5.722;2023-07-28T10:16:31;4.43;;;1.95;;
32172;SDS011;18679;45.190;5.722;2023-07-28T10:19:38;3.03;;;1.70;;
32172;SDS011;18679;45.190;5.722;2023-07-28T10:22:46;2.95;;;1.67;;
32172;SDS011;18679;45.190;5.722;2023-07-28T10:25:47;2.47;;;1.83;;
32172;SDS011;18679;45.190;5.722;2023-07-28T10:29:14;6.10;;;1.85;;
32172;SDS011;18679;45.190;5.722;2023-07-28T10:32:25;2.83;;;1.88;;
32172;SDS011;18679;45.190;5.722;2023-07-28T10:35:27;4.38;;;2.22;;
32172;SDS011;18679;45.190;5.722;2023-07-28T10:38:31;3.00;;;1.73;;
32172;SDS011;18679;45.190;5.722;2023-07-28T10:41:34;4.18;;;1.65;;
32172;SDS011;18679;45.190;5.722;2023-07-28T10:44:36;2.92;;;1.65;;
32172;SDS011;18679;45.190;5.722;2023-07-28T10:47:37;5.88;;;1.90;;
32172;SDS011;18679;45.190;5.722;2023-07-28T10:50:39;4.78;;;2.03;;
32172;SDS011;18679;45.190;5.722;2023-07-28T10:53:40;4.20;;;1.75;;
32172;SDS011;18679;45.190;5.722;2023-07-28T10:56:41;3.33;;;1.80;;
32172;SDS011;18679;45.190;5.722;2023-07-28T10:59:42;3.33;;;1.50;;
32172;SDS011;18679;45.190;5.722;2023-07-28T11:02:46;5.55;;;1.85;;
32172;SDS011;18679;45.190;5.722;2023-07-28T11:05:51;3.28;;;1.50;;
32172;SDS011;18679;45.190;5.722;2023-07-28T11:08:54;3.33;;;1.63;;
32172;SDS011;18679;45.190;5.722;2023-07-28T11:11:55;2.15;;;1.45;;
32172;SDS011;18679;45.190;5.722;2023-07-28T11:14:55;3.05;;;1.50;;
32172;SDS011;18679;45.190;5.722;2023-07-28T11:17:56;2.75;;;1.70;;
32172;SDS011;18679;45.190;5.722;2023-07-28T11:20:57;3.00;;;1.45;;
32172;SDS011;18679;45.190;5.722;2023-07-28T11:23:59;3.92;;;1.90;;
32172;SDS011;18679;45.190;5.722;2023-07-28T11:27:00;3.28;;;1.60;;
32172;SDS011;18679;45.190;5.722;2023-07-28T11:30:02;2.70;;;1.15;;
32172;SDS011;18679;45.190;5.722;2023-07-28T11:33:04;4.30;;;1.40;;
32172;SDS011;18679;45.190;5.722;2023-07-28T11:36:11;2.20;;;1.10;;
32172;SDS011;18679;45.190;5.722;2023-07-28T11:39:12;4.10;;;1.65;;
32172;SDS011;18679;45.190;5.722;2023-07-28T11:42:14;6.63;;;1.52;;
32172;SDS011;18679;45.190;5.722;2023-07-28T11:45:16;4.82;;;1.80;;
32172;SDS011;18679;45.190;5.722;2023-07-28T11:48:18;8.57;;;1.85;;
32172;SDS011;18679;45.190;5.722;2023-07-28T11:51:19;3.35;;;1.60;;
32172;SDS011;18679;45.190;5.722;2023-07-28T11:54:21;2.05;;;1.30;;
32172;SDS011;18679;45.190;5.722;2023-07-28T11:57:23;6.85;;;1.65;;
32172;SDS011;18679;45.190;5.722;2023-07-28T12:00:29;2.65;;;1.60;;
32172;SDS011;18679;45.190;5.722;2023-07-28T12:03:37;3.13;;;1.40;;
32172;SDS011;18679;45.190;5.722;2023-07-28T12:06:59;3.30;;;1.50;;
32172;SDS011;18679;45.190;5.722;2023-07-28T12:10:03;4.78;;;1.88;;
32172;SDS011;18679;45.190;5.722;2023-07-28T12:13:07;3.40;;;1.55;;
32172;SDS011;18679;45.190;5.722;2023-07-28T12:16:08;3.20;;;1.30;;
32172;SDS011;18679;45.190;5.722;2023-07-28T12:19:08;1.70;;;1.30;;
32172;SDS011;18679;45.190;5.722;2023-07-28T12:22:09;4.25;;;1.70;;
32172;SDS011;18679;45.190;5.722;2023-07-28T12:25:12;2.90;;;1.30;;
32172;SDS011;18679;45.190;5.722;2023-07-28T12:28:13;2.33;;;1.27;;
32172;SDS011;18679;45.190;5.722;2023-07-28T12:31:14;4.30;;;1.70;;
32172;SDS011;18679;45.190;5.722;2023-07-28T12:34:15;1.98;;;1.38;;
32172;SDS011;18679;45.190;5.722;2023-07-28T12:37:16;2.45;;;1.40;;
32172;SDS011;18679;45.190;5.722;2023-07-28T12:40:17;3.38;;;1.70;;
32172;SDS011;18679;45.190;5.722;2023-07-28T12:43:19;4.65;;;1.60;;
32172;SDS011;18679;45.190;5.722;2023-07-28T12:46:20;2.08;;;1.60;;
32172;SDS011;18679;45.190;5.722;2023-07-28T12:49:21;6.57;;;1.73;;
32172;SDS011;18679;45.190;5.722;2023-07-28T12:52:22;3.33;;;1.70;;
32172;SDS011;18679;45.190;5.722;2023-07-28T12:55:22;2.42;;;1.25;;
32172;SDS011;18679;45.190;5.722;2023-07-28T12:58:23;2.80;;;1.35;;
32172;SDS011;18679;45.190;5.722;2023-07-28T13:01:24;1.77;;;1.38;;
32172;SDS011;18679;45.190;5.722;2023-07-28T13:04:25;1.90;;;1.35;;
32172;SDS011;18679;45.190;5.722;2023-07-28T13:07:26;3.55;;;1.55;;
32172;SDS011;18679;45.190;5.722;2023-07-28T13:10:26;2.95;;;1.77;;
32172;SDS011;18679;45.190;5.722;2023-07-28T13:13:28;2.63;;;1.50;;
32172;SDS011;18679;45.190;5.722;2023-07-28T13:16:30;2.30;;;1.63;;
32172;SDS011;18679;45.190;5.722;2023-07-28T13:19:31;1.67;;;1.27;;
32172;SDS011;18679;45.190;5.722;2023-07-28T13:22:32;2.67;;;1.55;;
32172;SDS011;18679;45.190;5.722;2023-07-28T13:25:33;2.10;;;1.50;;
32172;SDS011;18679;45.190;5.722;2023-07-28T13:28:34;2.03;;;1.80;;
32172;SDS011;18679;45.190;5.722;2023-07-28T13:31:35;3.63;;;1.67;;
32172;SDS011;18679;45.190;5.722;2023-07-28T13:34:36;2.05;;;1.23;;
32172;SDS011;18679;45.190;5.722;2023-07-28T13:37:37;4.82;;;2.00;;
32172;SDS011;18679;45.190;5.722;2023-07-28T13:40:38;2.10;;;1.55;;
32172;SDS011;18679;45.190;5.722;2023-07-28T13:43:38;4.65;;;1.30;;
32172;SDS011;18679;45.190;5.722;2023-07-28T13:46:40;2.78;;;1.63;;
32172;SDS011;18679;45.190;5.722;2023-07-28T13:49:41;3.42;;;1.75;;
32172;SDS011;18679;45.190;5.722;2023-07-28T13:52:42;8.60;;;1.35;;
32172;SDS011;18679;45.190;5.722;2023-07-28T13:55:43;2.35;;;1.52;;
32172;SDS011;18679;45.190;5.722;2023-07-28T13:58:44;5.47;;;1.73;;
32172;SDS011;18679;45.190;5.722;2023-07-28T14:01:45;2.33;;;1.75;;
32172;SDS011;18679;45.190;5.722;2023-07-28T14:04:45;3.85;;;1.40;;
32172;SDS011;18679;45.190;5.722;2023-07-28T14:07:46;3.38;;;1.73;;
32172;SDS011;18679;45.190;5.722;2023-07-28T14:10:47;2.80;;;1.50;;
32172;SDS011;18679;45.190;5.722;2023-07-28T14:13:48;4.15;;;1.70;;
32172;SDS011;18679;45.190;5.722;2023-07-28T14:16:49;2.80;;;1.42;;
32172;SDS011;18679;45.190;5.722;2023-07-28T14:19:50;4.57;;;1.50;;
32172;SDS011;18679;45.190;5.722;2023-07-28T14:22:52;2.33;;;1.42;;
32172;SDS011;18679;45.190;5.722;2023-07-28T14:25:53;2.25;;;1.67;;
32172;SDS011;18679;45.190;5.722;2023-07-28T14:28:54;2.38;;;1.77;;
32172;SDS011;18679;45.190;5.722;2023-07-28T14:31:55;1.80;;;1.40;;
32172;SDS011;18679;45.190;5.722;2023-07-28T14:34:56;3.33;;;1.60;;
32172;SDS011;18679;45.190;5.722;2023-07-28T14:37:56;5.38;;;1.83;;
32172;SDS011;18679;45.190;5.722;2023-07-28T14:40:57;6.75;;;1.50;;
32172;SDS011;18679;45.190;5.722;2023-07-28T14:43:58;5.18;;;1.80;;
32172;SDS011;18679;45.190;5.722;2023-07-28T14:46:59;1.77;;;1.63;;
32172;SDS011;18679;45.190;5.722;2023-07-28T14:50:00;5.03;;;1.67;;
32172;SDS011;18679;45.190;5.722;2023-07-28T14:53:01;4.03;;;2.03;;
32172;SDS011;18679;45.190;5.722;2023-07-28T14:56:04;7.85;;;2.03;;
32172;SDS011;18679;45.190;5.722;2023-07-28T14:59:05;7.13;;;1.88;;
32172;SDS011;18679;45.190;5.722;2023-07-28T15:02:07;2.53;;;1.73;;
32172;SDS011;18679;45.190;5.722;2023-07-28T15:05:08;3.00;;;1.58;;
32172;SDS011;18679;45.190;5.722;2023-07-28T15:08:09;3.45;;;1.80;;
32172;SDS011;18679;45.190;5.722;2023-07-28T15:11:10;5.93;;;1.70;;
32172;SDS011;18679;45.190;5.722;2023-07-28T15:14:10;5.93;;;1.60;;
32172;SDS011;18679;45.190;5.722;2023-07-28T15:17:12;6.63;;;1.88;;
32172;SDS011;18679;45.190;5.722;2023-07-28T15:20:12;5.15;;;2.05;;
32172;SDS011;18679;45.190;5.722;2023-07-28T15:23:13;2.55;;;1.88;;
32172;SDS011;18679;45.190;5.722;2023-07-28T15:26:14;3.03;;;1.92;;
32172;SDS011;18679;45.190;5.722;2023-07-28T15:29:15;2.08;;;1.50;;
32172;SDS011;18679;45.190;5.722;2023-07-28T15:32:16;3.35;;;1.88;;
32172;SDS011;18679;45.190;5.722;2023-07-28T15:35:17;2.78;;;1.70;;
32172;SDS011;18679;45.190;5.722;2023-07-28T15:38:18;3.88;;;1.70;;
32172;SDS011;18679;45.190;5.722;2023-07-28T15:41:19;2.60;;;1.60;;
32172;SDS011;18679;45.190;5.722;2023-07-28T15:44:20;2.35;;;1.67;;
32172;SDS011;18679;45.190;5.722;2023-07-28T15:47:21;2.40;;;1.15;;
32172;SDS011;18679;45.190;5.722;2023-07-28T15:50:22;3.08;;;1.80;;
32172;SDS011;18679;45.190;5.722;2023-07-28T15:53:23;2.00;;;1.58;;
32172;SDS011;18679;45.190;5.722;2023-07-28T15:56:24;2.05;;;1.73;;
32172;SDS011;18679;45.190;5.722;2023-07-28T15:59:25;5.50;;;2.08;;
32172;SDS011;18679;45.190;5.722;2023-07-28T16:02:26;3.17;;;1.70;;
32172;SDS011;18679;45.190;5.722;2023-07-28T16:05:27;2.20;;;1.70;;
32172;SDS011;18679;45.190;5.722;2023-07-28T16:08:27;1.63;;;1.45;;
32172;SDS011;18679;45.190;5.722;2023-07-28T16:11:29;2.63;;;1.85;;
32172;SDS011;18679;45.190;5.722;2023-07-28T16:14:30;5.25;;;1.73;;
32172;SDS011;18679;45.190;5.722;2023-07-28T16:17:31;2.90;;;1.50;;
32172;SDS011;18679;45.190;5.722;2023-07-28T16:20:32;1.98;;;1.65;;
32172;SDS011;18679;45.190;5.722;2023-07-28T16:23:33;2.40;;;1.52;;
32172;SDS011;18679;45.190;5.722;2023-07-28T16:26:34;2.72;;;1.88;;
32172;SDS011;18679;45.190;5.722;2023-07-28T16:29:35;2.88;;;2.10;;
32172;SDS011;18679;45.190;5.722;2023-07-28T16:32:35;1.65;;;1.42;;
32172;SDS011;18679;45.190;5.722;2023-07-28T16:35:36;3.30;;;1.75;;
32172;SDS011;18679;45.190;5.722;2023-07-28T16:38:37;2.80;;;1.70;;
32172;SDS011;18679;45.190;5.722;2023-07-28T16:41:38;8.48;;;1.88;;
32172;SDS011;18679;45.190;5.722;2023-07-28T16:44:39;4.20;;;1.80;;
32172;SDS011;18679;45.190;5.722;2023-07-28T16:47:39;3.15;;;1.90;;
32172;SDS011;18679;45.190;5.722;2023-07-28T16:50:40;4.05;;;1.40;;
32172;SDS011;18679;45.190;5.722;2023-07-28T16:53:41;2.03;;;1.50;;
32172;SDS011;18679;45.190;5.722;2023-07-28T16:56:42;3.25;;;1.35;;
32172;SDS011;18679;45.190;5.722;2023-07-28T16:59:42;2.65;;;1.80;;
32172;SDS011;18679;45.190;5.722;2023-07-28T17:02:43;3.13;;;2.05;;
32172;SDS011;18679;45.190;5.722;2023-07-28T17:05:44;2.42;;;1.70;;
32172;SDS011;18679;45.190;5.722;2023-07-28T17:08:45;2.85;;;1.80;;
32172;SDS011;18679;45.190;5.722;2023-07-28T17:11:46;2.35;;;1.60;;
32172;SDS011;18679;45.190;5.722;2023-07-28T17:14:47;4.22;;;2.15;;
32172;SDS011;18679;45.190;5.722;2023-07-28T17:17:48;2.05;;;1.48;;
32172;SDS011;18679;45.190;5.722;2023-07-28T17:20:48;3.83;;;2.00;;
32172;SDS011;18679;45.190;5.722;2023-07-28T17:23:49;2.83;;;2.10;;
32172;SDS011;18679;45.190;5.722;2023-07-28T17:26:50;5.10;;;2.72;;
32172;SDS011;18679;45.190;5.722;2023-07-28T17:29:51;6.65;;;3.25;;
32172;SDS011;18679;45.190;5.722;2023-07-28T17:32:52;5.35;;;2.90;;
32172;SDS011;18679;45.190;5.722;2023-07-28T17:35:53;9.15;;;3.33;;
32172;SDS011;18679;45.190;5.722;2023-07-28T17:38:53;4.43;;;2.53;;
32172;SDS011;18679;45.190;5.722;2023-07-28T17:41:54;4.47;;;2.60;;
32172;SDS011;18679;45.190;5.722;2023-07-28T17:44:55;5.22;;;2.40;;
32172;SDS011;18679;45.190;5.722;2023-07-28T17:47:56;4.22;;;2.47;;
32172;SDS011;18679;45.190;5.722;2023-07-28T17:50:57;4.97;;;2.55;;
32172;SDS011;18679;45.190;5.722;2023-07-28T17:53:58;6.20;;;2.47;;
32172;SDS011;18679;45.190;5.722;2023-07-28T17:57:02;2.85;;;2.03;;
32172;SDS011;18679;45.190;5.722;2023-07-28T18:00:03;5.43;;;2.60;;
32172;SDS011;18679;45.190;5.722;2023-07-28T18:03:05;8.32;;;2.35;;
32172;SDS011;18679;45.190;5.722;2023-07-28T18:06:06;3.60;;;1.90;;
32172;SDS011;18679;45.190;5.722;2023-07-28T18:09:07;5.20;;;2.40;;
32172;SDS011;18679;45.190;5.722;2023-07-28T18:12:08;4.00;;;2.05;;
32172;SDS011;18679;45.190;5.722;2023-07-28T18:15:09;4.22;;;2.30;;
32172;SDS011;18679;45.190;5.722;2023-07-28T18:18:10;3.03;;;2.05;;
32172;SDS011;18679;45.190;5.722;2023-07-28T18:21:11;5.63;;;2.58;;
32172;SDS011;18679;45.190;5.722;2023-07-28T18:24:12;3.08;;;2.13;;
32172;SDS011;18679;45.190;5.722;2023-07-28T18:27:16;4.32;;;1.98;;